Time;durP1;ratioP1;P1;durP2;ratioP2;P2;SDS_P1;SDS_P2;PMS_P1;PMS_P2;Temp;Humidity;BMP_temperature;BMP_pressure;BME280_temperature;BME280_humidity;BME280_pressure;Samples;Min_cycle;Max_cycle;Signal;HPM_P1;HPM_P2
2021/11/01 00:00:20;;;;;;;6.65;1.27;;;10.10;99.70;;;;;;5078041;28;20125;-75
2021/11/01 00:02:48;;;;;;;5.25;1.20;;;10.00;99.80;;;;;;5077948;28;20013;-74
2021/11/01 00:05:14;;;;;;;7.32;1.08;;;10.10;99.90;;;;;;5076603;28;20021;-75
2021/11/01 00:07:40;;;;;;;6.60;1.20;;;10.00;99.80;;;;;;5078412;28;20028;-75
2021/11/01 00:10:07;;;;;;;6.93;1.15;;;10.00;99.80;;;;;;5076183;28;20025;-75
2021/11/01 00:12:34;;;;;;;7.97;1.55;;;10.00;99.70;;;;;;5076581;28;20025;-75
2021/11/01 00:15:01;;;;;;;5.22;1.23;;;10.00;99.80;;;;;;5076963;28;20059;-75
2021/11/01 00:17:27;;;;;;;7.50;2.00;;;10.00;99.90;;;;;;5077842;28;20420;-75
2021/11/01 00:19:54;;;;;;;8.27;1.45;;;10.00;99.60;;;;;;5077770;28;20048;-75
2021/11/01 00:22:21;;;;;;;9.75;1.27;;;10.00;99.80;;;;;;5077863;28;20068;-75
2021/11/01 00:24:47;;;;;;;4.40;1.23;;;10.00;99.80;;;;;;5077250;28;20031;-75
2021/11/01 00:27:15;;;;;;;8.85;2.05;;;9.90;99.80;;;;;;5077788;28;20032;-75
2021/11/01 00:29:42;;;;;;;5.43;1.17;;;9.90;99.90;;;;;;5077545;28;20036;-75
2021/11/01 00:32:08;;;;;;;6.57;1.40;;;9.90;99.80;;;;;;5077598;28;20134;-75
2021/11/01 00:34:35;;;;;;;5.05;1.10;;;9.90;99.80;;;;;;5077709;28;20048;-75
2021/11/01 00:37:01;;;;;;;3.95;0.90;;;9.90;99.80;;;;;;5077395;28;20137;-75
2021/11/01 00:39:27;;;;;;;4.47;1.00;;;9.90;99.80;;;;;;5077315;28;20021;-75
2021/11/01 00:41:53;;;;;;;4.90;1.33;;;9.90;99.70;;;;;;5077613;28;20091;-75
2021/11/01 00:44:18;;;;;;;9.52;1.75;;;9.90;99.80;;;;;;5077318;28;20059;-75
2021/11/01 00:46:44;;;;;;;5.20;1.20;;;9.80;99.80;;;;;;5077546;28;20027;-75
2021/11/01 00:49:10;;;;;;;11.18;1.88;;;9.80;99.80;;;;;;5077385;28;20032;-75
2021/11/01 00:51:39;;;;;;;4.57;0.90;;;9.80;99.80;;;;;;5077472;28;20055;-75
2021/11/01 00:54:07;;;;;;;6.60;1.83;;;9.80;99.80;;;;;;5077019;28;20055;-75
2021/11/01 00:56:33;;;;;;;8.93;1.40;;;9.80;99.90;;;;;;5077460;28;20414;-75
2021/11/01 00:58:59;;;;;;;9.13;1.80;;;9.70;99.90;;;;;;5077429;28;20025;-75
2021/11/01 01:01:25;;;;;;;8.85;2.15;;;9.70;99.90;;;;;;5077410;28;20023;-75
2021/11/01 01:03:51;;;;;;;9.43;2.25;;;9.70;99.90;;;;;;5077329;28;20036;-75
2021/11/01 01:06:18;;;;;;;9.77;1.73;;;9.60;99.90;;;;;;5077445;28;20353;-75
2021/11/01 01:08:44;;;;;;;11.05;1.65;;;9.60;99.90;;;;;;5076806;28;20048;-75
2021/11/01 01:11:10;;;;;;;11.48;1.45;;;9.60;99.90;;;;;;5077464;28;20021;-75
2021/11/01 01:13:37;;;;;;;6.88;1.30;;;9.60;99.90;;;;;;5075867;28;20029;-75
2021/11/01 01:16:20;;;;;;;6.50;1.15;;;9.60;99.90;;;;;;5077383;28;20029;-75
2021/11/01 01:18:49;;;;;;;7.22;1.10;;;9.50;99.90;;;;;;5077459;28;20028;-75
2021/11/01 01:24:04;;;;;;;10.15;1.40;;;9.50;99.90;;;;;;5077020;28;20082;-75
2021/11/01 01:26:30;;;;;;;5.93;1.30;;;9.50;99.90;;;;;;5079968;28;20027;-75
2021/11/01 01:28:57;;;;;;;8.60;1.80;;;9.50;99.90;;;;;;5081323;28;20029;-75
2021/11/01 01:31:24;;;;;;;7.43;1.73;;;9.50;99.90;;;;;;5081150;28;20032;-75
2021/11/01 01:33:50;;;;;;;8.88;1.30;;;9.50;99.90;;;;;;5080815;28;20067;-75
2021/11/01 01:36:16;;;;;;;9.07;2.08;;;9.40;99.90;;;;;;5080637;28;20044;-75
2021/11/01 01:38:42;;;;;;;7.60;1.30;;;9.40;99.90;;;;;;5080504;28;20107;-76
2021/11/01 01:41:21;;;;;;;5.72;1.52;;;9.40;99.90;;;;;;5080926;28;20140;-75
2021/11/01 01:43:49;;;;;;;12.00;1.63;;;9.40;99.90;;;;;;5080686;28;20017;-75
2021/11/01 01:46:16;;;;;;;11.93;1.40;;;9.30;99.90;;;;;;5080787;28;20017;-75
2021/11/01 01:48:42;;;;;;;14.05;2.05;;;9.30;99.90;;;;;;5080775;28;20021;-75
2021/11/01 01:51:09;;;;;;;17.17;2.05;;;9.30;99.90;;;;;;5079278;28;20031;-75
2021/11/01 01:53:36;;;;;;;5.80;1.50;;;9.30;99.90;;;;;;5080202;28;20029;-75
2021/11/01 01:56:04;;;;;;;9.27;1.63;;;9.30;99.90;;;;;;5079231;28;20032;-75
2021/11/01 01:58:33;;;;;;;10.63;1.52;;;9.30;99.90;;;;;;5080318;28;20513;-75
2021/11/01 02:01:08;;;;;;;5.90;1.00;;;9.30;99.90;;;;;;5079405;28;20065;-74
2021/11/01 02:03:39;;;;;;;7.53;1.38;;;9.30;99.90;;;;;;5080237;28;20025;-75
2021/11/01 02:06:14;;;;;;;8.57;1.85;;;9.20;99.90;;;;;;5080494;28;20027;-75
2021/11/01 02:08:46;;;;;;;8.90;1.88;;;9.20;99.90;;;;;;5080033;28;20066;-75
2021/11/01 02:11:22;;;;;;;12.43;1.70;;;9.30;99.90;;;;;;5080388;28;20012;-75
2021/11/01 02:13:51;;;;;;;8.38;1.65;;;9.20;99.90;;;;;;5080360;28;20043;-75
2021/11/01 02:16:17;;;;;;;9.70;1.73;;;9.20;99.90;;;;;;5080198;28;20017;-75
2021/11/01 02:18:51;;;;;;;11.35;2.20;;;9.20;99.90;;;;;;5080226;28;20035;-75
2021/11/01 02:21:19;;;;;;;8.25;1.58;;;9.20;99.90;;;;;;5080142;28;20020;-75
2021/11/01 02:24:04;;;;;;;6.85;1.58;;;9.20;99.90;;;;;;5079687;28;20112;-75
2021/11/01 02:26:32;;;;;;;9.48;1.98;;;9.10;99.90;;;;;;5080103;28;20025;-75
2021/11/01 02:29:00;;;;;;;14.23;2.35;;;9.10;99.90;;;;;;5079984;28;20034;-75
2021/11/01 02:31:26;;;;;;;10.60;1.33;;;9.10;99.90;;;;;;5079801;28;20059;-75
2021/11/01 02:33:53;;;;;;;11.20;1.95;;;9.10;99.90;;;;;;5079716;28;20091;-75
2021/11/01 02:36:20;;;;;;;10.45;1.98;;;9.10;99.90;;;;;;5079128;28;20450;-75
2021/11/01 02:38:50;;;;;;;8.55;1.88;;;9.00;99.90;;;;;;5077623;28;20038;-75
2021/11/01 02:41:28;;;;;;;8.90;1.65;;;9.00;99.90;;;;;;5079796;28;20096;-75
2021/11/01 02:43:56;;;;;;;12.55;2.17;;;9.10;99.90;;;;;;5078214;28;20027;-75
2021/11/01 02:46:23;;;;;;;9.13;1.50;;;9.00;99.90;;;;;;5079711;28;20016;-75
2021/11/01 02:48:51;;;;;;;9.55;1.48;;;9.00;99.90;;;;;;5079495;28;20032;-75
2021/11/01 02:51:19;;;;;;;11.48;3.03;;;9.00;99.90;;;;;;5079637;28;20021;-75
2021/11/01 02:53:47;;;;;;;10.70;2.00;;;9.00;99.90;;;;;;5077624;28;20035;-75
2021/11/01 02:56:13;;;;;;;15.25;1.98;;;9.00;99.90;;;;;;5079604;28;20020;-75
2021/11/01 02:58:41;;;;;;;6.60;1.60;;;9.00;99.90;;;;;;5079277;28;20468;-75
2021/11/01 03:01:12;;;;;;;7.40;1.55;;;8.90;99.90;;;;;;5079687;28;20036;-75
2021/11/01 03:03:39;;;;;;;8.85;1.60;;;8.90;99.90;;;;;;5078004;28;20408;-75
2021/11/01 03:06:06;;;;;;;8.05;1.77;;;8.90;99.90;;;;;;5079397;28;20379;-75
2021/11/01 03:08:33;;;;;;;14.05;2.63;;;8.90;99.90;;;;;;5078788;28;20025;-75
2021/11/01 03:11:01;;;;;;;9.15;2.00;;;8.90;99.90;;;;;;5079262;28;20021;-75
2021/11/01 03:13:29;;;;;;;11.95;2.63;;;8.90;99.90;;;;;;5079046;28;20390;-75
2021/11/01 03:15:59;;;;;;;11.00;1.45;;;8.90;99.90;;;;;;5079290;28;20372;-75
2021/11/01 03:18:30;;;;;;;13.80;2.10;;;8.90;99.90;;;;;;5078849;28;20025;-75
2021/11/01 03:20:57;;;;;;;9.98;1.88;;;8.80;99.90;;;;;;5079178;28;20055;-75
2021/11/01 03:23:27;;;;;;;11.43;1.92;;;8.80;99.90;;;;;;5078746;28;20017;-75
2021/11/01 03:25:58;;;;;;;12.32;1.95;;;8.80;99.90;;;;;;5078973;28;20035;-75
2021/11/01 03:28:25;;;;;;;11.35;1.90;;;8.80;99.90;;;;;;5078744;28;20028;-75
2021/11/01 03:30:56;;;;;;;14.25;2.45;;;8.80;99.90;;;;;;5078892;28;20514;-75
2021/11/01 03:33:23;;;;;;;6.32;1.63;;;8.80;99.90;;;;;;5078722;28;20082;-75
2021/11/01 03:35:50;;;;;;;10.32;2.40;;;8.70;99.90;;;;;;5078529;28;20048;-75
2021/11/01 03:38:16;;;;;;;12.35;3.00;;;8.80;99.90;;;;;;5078627;28;20032;-75
2021/11/01 03:40:46;;;;;;;12.23;2.03;;;8.70;99.90;;;;;;5078133;28;20024;-75
2021/11/01 03:43:17;;;;;;;12.20;2.13;;;8.70;99.90;;;;;;5078733;28;20017;-75
2021/11/01 03:45:43;;;;;;;10.13;1.67;;;8.80;99.90;;;;;;5078573;28;20036;-75
2021/11/01 03:48:12;;;;;;;9.45;1.35;;;8.80;99.90;;;;;;5078420;28;20060;-74
2021/11/01 03:50:42;;;;;;;7.80;1.60;;;8.80;99.90;;;;;;5078308;28;20048;-75
2021/11/01 03:53:08;;;;;;;17.58;3.13;;;8.80;99.90;;;;;;5078377;28;20467;-75
2021/11/01 03:55:34;;;;;;;8.55;1.50;;;8.90;99.90;;;;;;5077690;28;20391;-75
2021/11/01 03:58:01;;;;;;;11.95;1.48;;;8.90;99.90;;;;;;5078424;28;20038;-75
2021/11/01 04:00:34;;;;;;;8.20;1.45;;;8.90;99.90;;;;;;5078142;28;20028;-75
2021/11/01 04:03:00;;;;;;;;;;;8.80;99.90;;;;;;5069732;28;20027;-75
2021/11/01 04:05:26;;;;;;;6.53;1.35;;;8.80;99.90;;;;;;5077995;28;19904;-76
2021/11/01 04:07:52;;;;;;;9.35;1.90;;;8.80;99.90;;;;;;5078222;28;20016;-75
2021/11/01 04:10:18;;;;;;;12.93;2.53;;;8.80;99.90;;;;;;5077567;28;20059;-75
2021/11/01 04:12:44;;;;;;;7.65;1.77;;;8.70;99.90;;;;;;5077909;28;20032;-75
2021/11/01 04:15:14;;;;;;;11.43;1.40;;;8.70;99.90;;;;;;5077960;28;20074;-75
2021/11/01 04:17:46;;;;;;;11.02;2.08;;;8.70;99.90;;;;;;5077830;28;20021;-75
2021/11/01 04:22:51;;;;;;;7.25;1.85;;;8.70;99.90;;;;;;5077704;28;20090;-75
2021/11/01 04:25:19;;;;;;;8.23;1.20;;;8.70;99.90;;;;;;5077556;28;20029;-75
2021/11/01 04:27:46;;;;;;;10.40;2.03;;;8.60;99.90;;;;;;5077781;28;20039;-75
2021/11/01 04:30:12;;;;;;;14.15;2.35;;;8.60;99.90;;;;;;5078020;28;20029;-75
2021/11/01 04:32:43;;;;;;;9.23;1.67;;;8.60;99.90;;;;;;5077491;28;20026;-75
2021/11/01 04:35:15;;;;;;;9.32;1.48;;;8.60;99.90;;;;;;5077481;28;20048;-75
2021/11/01 04:37:43;;;;;;;7.18;1.30;;;8.60;99.90;;;;;;5077366;28;20387;-75
2021/11/01 04:43:40;;;;;;;7.53;1.52;;;8.60;99.90;;;;;;5077450;28;20051;-75
2021/11/01 04:53:51;;;;;;;7.78;1.50;;;8.50;99.90;;;;;;5077018;28;20043;-75
2021/11/01 04:56:21;;;;;;;7.50;1.95;;;8.50;99.90;;;;;;5077378;28;20032;-75
2021/11/01 04:58:47;;;;;;;8.10;1.50;;;8.50;99.90;;;;;;5077493;28;20013;-75
2021/11/01 05:01:17;;;;;;;9.40;1.67;;;8.50;99.90;;;;;;5076856;28;20115;-75
2021/11/01 05:03:44;;;;;;;8.50;1.75;;;8.50;99.90;;;;;;5075889;28;20077;-75
2021/11/01 05:06:16;;;;;;;9.73;1.83;;;8.50;99.90;;;;;;5077628;28;20078;-75
2021/11/01 05:08:46;;;;;;;7.57;1.73;;;8.50;99.90;;;;;;5077012;28;20499;-75
2021/11/01 05:11:26;;;;;;;9.00;1.75;;;8.50;99.90;;;;;;5077256;28;20139;-75
2021/11/01 05:13:52;;;;;;;12.88;1.75;;;8.50;99.90;;;;;;5077487;28;20059;-75
2021/11/01 05:16:30;;;;;;;8.00;1.50;;;8.60;99.90;;;;;;5077164;28;20095;-75
2021/11/01 05:19:11;;;;;;;10.90;2.08;;;8.60;99.90;;;;;;5077397;28;20052;-75
2021/11/01 05:24:13;;;;;;;7.20;1.33;;;8.70;99.90;;;;;;5077142;28;20050;-75
2021/11/01 05:29:06;;;;;;;12.65;1.50;;;8.80;99.90;;;;;;5077473;28;20024;-75
2021/11/01 05:31:43;;;;;;;6.20;1.58;;;8.80;99.90;;;;;;5076946;28;20112;-75
2021/11/01 05:34:13;;;;;;;7.70;1.30;;;8.80;99.90;;;;;;5070995;28;20052;-75
2021/11/01 05:36:39;;;;;;;5.13;1.38;;;8.80;99.90;;;;;;5076702;28;20084;-75
2021/11/01 05:39:06;;;;;;;9.32;1.27;;;8.80;99.90;;;;;;5076682;28;20056;-75
2021/11/01 05:41:32;;;;;;;5.93;1.42;;;8.80;99.90;;;;;;5077022;28;20467;-75
2021/11/01 05:43:58;;;;;;;8.40;1.40;;;8.70;99.90;;;;;;5076801;28;20033;-75
2021/11/01 05:46:32;;;;;;;8.80;1.17;;;8.70;99.90;;;;;;5077364;28;20097;-75
2021/11/01 05:48:58;;;;;;;8.07;1.25;;;8.60;99.90;;;;;;5076987;28;20017;-75
2021/11/01 05:51:25;;;;;;;7.15;1.50;;;8.60;99.90;;;;;;5077059;28;20028;-75
2021/11/01 05:53:55;;;;;;;14.43;1.70;;;8.60;99.90;;;;;;5076652;28;20054;-75
2021/11/01 05:56:30;;;;;;;6.65;1.10;;;8.50;99.90;;;;;;5077116;28;20029;-75
2021/11/01 06:14:36;;;;;;;4.47;0.90;;;8.30;99.90;;;;;;5080245;28;20039;-75
2021/11/01 06:17:02;;;;;;;5.75;0.98;;;8.30;99.90;;;;;;5078905;28;20119;-75
2021/11/01 06:19:29;;;;;;;5.30;1.40;;;8.30;99.90;;;;;;5080135;28;20028;-75
2021/11/01 06:21:55;;;;;;;6.65;1.23;;;8.20;99.90;;;;;;5080204;28;20021;-75
2021/11/01 06:24:47;;;;;;;6.22;1.17;;;8.20;99.90;;;;;;5078405;28;20029;-75
2021/11/01 06:27:10;;;;;;;8.27;1.75;;;8.20;99.90;;;;;;5079977;28;20031;-75
2021/11/01 06:32:31;;;;;;;4.70;0.80;;;8.20;99.90;;;;;;5080152;28;20581;-75
2021/11/01 06:56:44;;;;;;;6.10;1.50;;;8.20;99.90;;;;;;5079440;28;20035;-75
2021/11/01 07:15:37;;;;;;;6.93;1.23;;;8.20;99.90;;;;;;5079220;28;20054;-75
2021/11/01 08:24:07;;;;;;;5.10;1.35;;;9.80;99.00;;;;;;5077813;28;20020;-75
2021/11/01 08:35:45;;;;;;;5.97;1.00;;;10.30;98.60;;;;;;5061458;28;20051;-75
2021/11/01 08:48:36;;;;;;;7.97;1.27;;;10.50;98.10;;;;;;5077530;28;20082;-74
2021/11/01 09:20:35;;;;;;;7.63;1.58;;;11.20;97.30;;;;;;5077670;28;20035;-74
2021/11/01 09:28:32;;;;;;;9.15;2.60;;;11.30;97.10;;;;;;5076946;28;20029;-74
2021/11/01 09:36:48;;;;;;;10.98;1.85;;;11.30;97.20;;;;;;5076909;28;20093;-74
2021/11/01 09:39:44;;;;;;;8.30;1.80;;;11.30;97.70;;;;;;5076527;28;20527;-74
2021/11/01 09:42:11;;;;;;;7.80;1.70;;;11.40;98.20;;;;;;5076790;28;20455;-74
2021/11/01 09:44:36;;;;;;;12.23;1.90;;;11.50;98.30;;;;;;5077283;28;20081;-74
2021/11/01 09:47:04;;;;;;;8.45;1.67;;;11.70;98.10;;;;;;5078991;28;20474;-74
2021/11/01 09:49:30;;;;;;;10.55;2.70;;;11.80;97.90;;;;;;5081155;28;20059;-74
2021/11/01 09:52:02;;;;;;;10.35;1.92;;;11.90;97.90;;;;;;5080504;28;20521;-74
2021/11/01 09:54:30;;;;;;;11.55;1.80;;;12.00;98.20;;;;;;5079061;28;20384;-74
2021/11/01 09:57:02;;;;;;;11.23;1.80;;;12.40;97.80;;;;;;5080603;28;20055;-74
2021/11/01 09:59:31;;;;;;;10.83;2.00;;;13.10;98.20;;;;;;5080574;28;20033;-74
2021/11/01 10:02:00;;;;;;;10.55;2.55;;;14.00;97.20;;;;;;5079997;28;20737;-74
2021/11/01 10:04:29;;;;;;;13.15;2.85;;;14.40;95.70;;;;;;5080517;28;20086;-74
2021/11/01 10:07:19;;;;;;;13.68;2.33;;;14.70;94.50;;;;;;5080491;28;20034;-74
2021/11/01 10:09:47;;;;;;;13.30;2.05;;;14.90;93.10;;;;;;5078643;28;20490;-74
2021/11/01 10:12:19;;;;;;;9.10;1.60;;;15.20;90.60;;;;;;5080635;28;20108;-75
2021/11/01 10:14:59;;;;;;;8.48;1.65;;;15.60;90.60;;;;;;5080181;28;20094;-75
2021/11/01 10:17:37;;;;;;;6.40;1.92;;;16.10;88.30;;;;;;5080223;28;20108;-74
2021/11/01 10:20:17;;;;;;;10.32;1.60;;;16.70;87.10;;;;;;5078810;28;20048;-75
2021/11/01 10:22:43;;;;;;;10.43;2.45;;;17.30;86.50;;;;;;5080122;28;20020;-75
2021/11/01 10:25:20;;;;;;;9.65;1.77;;;18.00;83.70;;;;;;5079720;28;20012;-74
2021/11/01 10:27:56;;;;;;;7.32;1.33;;;18.70;81.50;;;;;;5078594;28;20395;-75
2021/11/01 10:30:25;;;;;;;8.88;1.90;;;19.10;77.30;;;;;;5080210;28;20433;-74
2021/11/01 10:32:52;;;;;;;7.07;1.15;;;19.70;73.80;;;;;;5079671;28;20024;-75
2021/11/01 10:35:28;;;;;;;8.60;1.70;;;19.90;72.30;;;;;;5080031;28;20403;-75
2021/11/01 10:41:01;;;;;;;7.97;1.65;;;20.00;72.30;;;;;;5079576;28;20023;-75
2021/11/01 11:14:04;;;;;;;3.47;1.13;;;21.40;64.30;;;;;;5036987;28;20033;-75
2021/11/01 11:47:44;;;;;;;5.78;1.05;;;20.90;57.70;;;;;;5078420;28;20086;-75
2021/11/01 11:50:11;;;;;;;;;;;20.70;60.80;;;;;;5077506;28;20032;-76
2021/11/01 11:52:37;;;;;;;3.53;0.80;;;20.40;59.90;;;;;;5078454;28;19905;-76
2021/11/01 11:55:14;;;;;;;7.00;0.95;;;20.30;59.40;;;;;;5078040;28;20054;-76
2021/11/01 11:57:40;;;;;;;5.55;1.17;;;20.20;60.10;;;;;;5078578;28;20020;-76
2021/11/01 12:00:11;;;;;;;3.55;0.90;;;20.10;60.80;;;;;;5078250;28;20502;-76
2021/11/01 12:02:47;;;;;;;3.53;0.90;;;19.90;58.70;;;;;;5076942;28;20364;-76
2021/11/01 12:05:26;;;;;;;9.30;0.93;;;19.60;61.00;;;;;;5077970;28;20540;-76
2021/11/01 12:08:06;;;;;;;3.83;0.80;;;19.30;57.70;;;;;;5078552;28;20028;-76
2021/11/01 12:11:10;;;;;;;5.78;0.70;;;19.10;57.90;;;;;;5078045;28;20029;-76
2021/11/01 12:18:51;;;;;;;6.47;0.90;;;18.70;61.90;;;;;;5078084;28;20521;-76
2021/11/01 12:21:17;;;;;;;5.70;1.40;;;18.80;65.00;;;;;;5077705;28;20028;-76
2021/11/01 12:23:43;;;;;;;6.97;1.52;;;18.80;60.10;;;;;;5077565;28;20017;-76
2021/11/01 12:26:15;;;;;;;5.13;1.35;;;18.80;60.30;;;;;;5076377;28;20405;-76
2021/11/01 12:28:50;;;;;;;6.75;1.40;;;19.00;64.90;;;;;;5078096;28;20078;-76
2021/11/01 12:31:16;;;;;;;5.10;1.40;;;18.80;61.70;;;;;;5077644;28;20043;-76
2021/11/01 12:33:51;;;;;;;8.32;1.67;;;18.80;64.20;;;;;;5076299;28;20395;-76
2021/11/01 12:36:39;;;;;;;5.70;1.10;;;18.80;62.40;;;;;;5076467;28;20055;-76
2021/11/01 12:58:28;;;;;;;12.70;1.83;;;17.70;64.80;;;;;;5077364;28;20410;-76
2021/11/01 13:00:54;;;;;;;6.80;1.23;;;17.60;66.10;;;;;;5077435;28;20506;-76
2021/11/01 13:03:22;;;;;;;6.00;1.00;;;17.70;65.90;;;;;;5077367;28;20032;-76
2021/11/01 13:05:54;;;;;;;6.43;1.20;;;17.60;65.50;;;;;;5077351;28;20055;-76
2021/11/01 13:08:27;;;;;;;5.30;1.70;;;17.50;62.30;;;;;;5077238;28;20040;-76
2021/11/01 13:11:16;;;;;;;8.20;1.60;;;17.40;66.20;;;;;;5077321;28;20043;-76
2021/11/01 13:19:18;;;;;;;10.20;1.30;;;17.10;66.40;;;;;;5077639;28;20062;-76
2021/11/01 13:21:53;;;;;;;8.45;1.48;;;16.90;63.80;;;;;;5078867;28;20020;-76
2021/11/01 13:24:22;;;;;;;6.32;1.90;;;16.80;64.90;;;;;;5080909;28;20016;-76
2021/11/01 13:27:08;;;;;;;8.95;1.77;;;16.60;64.20;;;;;;5081241;28;20054;-77
2021/11/01 13:37:41;;;;;;;9.68;2.13;;;16.20;65.30;;;;;;5080859;28;20037;-77
2021/11/01 13:40:16;;;;;;;7.05;1.70;;;16.10;65.50;;;;;;5079335;28;20021;-77
2021/11/01 13:42:58;;;;;;;6.75;1.30;;;16.00;67.30;;;;;;5080910;28;20017;-77
2021/11/01 13:45:25;;;;;;;6.78;1.25;;;15.70;68.90;;;;;;5079571;28;20025;-77
2021/11/01 13:47:54;;;;;;;8.40;1.42;;;15.50;70.00;;;;;;5080876;28;20033;-77
2021/11/01 13:50:22;;;;;;;5.22;1.10;;;15.50;73.00;;;;;;5080722;28;20510;-77
2021/11/01 13:53:01;;;;;;;8.10;1.55;;;15.60;75.20;;;;;;5080886;28;20158;-76
2021/11/01 14:27:30;;;;;;;2.22;0.73;;;15.70;73.00;;;;;;5079996;28;20552;-75
2021/11/01 14:58:07;;;;;;;13.85;4.97;;;14.90;75.70;;;;;;5076459;28;20063;-76
2021/11/01 15:08:47;;;;;;;13.85;4.53;;;14.70;74.60;;;;;;5064048;28;20040;-73
2021/11/01 15:11:49;;;;;;;11.32;3.42;;;14.70;74.20;;;;;;5075651;28;20495;-76
2021/11/01 15:19:57;;;;;;;9.82;1.50;;;14.50;73.00;;;;;;5078919;28;20116;-77
2021/11/01 15:38:02;;;;;;;6.97;1.77;;;14.20;72.00;;;;;;5068021;28;20045;-81
2021/11/01 16:16:24;;;;;;;64.97;28.40;;;13.30;77.00;;;;;;5077450;28;20050;-74
2021/11/01 16:18:50;;;;;;;55.22;23.15;;;13.20;77.10;;;;;;5077232;28;20029;-73
2021/11/01 16:21:19;;;;;;;54.53;22.95;;;13.10;77.30;;;;;;5077433;28;20387;-72
2021/11/01 16:23:45;;;;;;;37.80;15.60;;;13.00;77.60;;;;;;5077094;28;20028;-73
2021/11/01 16:26:22;;;;;;;17.85;6.45;;;12.90;77.80;;;;;;5077476;28;20170;-72
2021/11/01 16:28:53;;;;;;;11.85;3.47;;;12.90;77.90;;;;;;5076363;28;20029;-73
2021/11/01 16:31:25;;;;;;;6.10;2.42;;;12.80;78.00;;;;;;5077527;28;20070;-73
2021/11/01 16:33:56;;;;;;;;;;;12.70;77.50;;;;;;5078056;28;20035;-73
2021/11/01 16:39:16;;;;;;;7.28;2.08;;;12.50;77.50;;;;;;5073292;28;20070;-73
2021/11/01 16:41:43;;;;;;;17.15;5.60;;;12.40;77.50;;;;;;5077496;28;20025;-73
2021/11/01 16:44:17;;;;;;;14.73;6.00;;;12.30;78.10;;;;;;5076980;28;20025;-73
2021/11/01 16:46:44;;;;;;;28.33;10.70;;;12.20;78.40;;;;;;5077027;28;20017;-72
2021/11/01 16:49:11;;;;;;;17.95;7.05;;;12.20;78.60;;;;;;5076417;28;20028;-73
2021/11/01 16:51:40;;;;;;;13.63;5.82;;;12.10;78.80;;;;;;5076992;28;20059;-73
2021/11/01 16:54:09;;;;;;;15.07;5.95;;;12.00;79.00;;;;;;5076674;28;20036;-73
2021/11/01 17:02:27;;;;;;;13.15;4.80;;;11.90;79.30;;;;;;5075021;28;20063;-73
2021/11/01 17:05:14;;;;;;;25.17;11.48;;;11.80;79.40;;;;;;5076920;28;20024;-73
2021/11/01 17:24:14;;;;;;;14.93;7.43;;;11.50;79.90;;;;;;5074122;28;20399;-77
2021/11/01 17:30:22;;;;;;;18.35;7.78;;;11.40;80.00;;;;;;5068818;28;20025;-78
2021/11/01 17:36:01;;;;;;;30.15;13.30;;;11.30;80.40;;;;;;5076527;28;20118;-78
2021/11/01 18:24:53;;;;;;;29.25;13.90;;;11.20;81.20;;;;;;5077010;28;20054;-79
2021/11/01 18:53:29;;;;;;;43.70;21.98;;;10.20;86.60;;;;;;5066106;28;20125;-76
2021/11/01 18:55:56;;;;;;;36.45;20.40;;;10.10;87.00;;;;;;5077904;28;20110;-76
2021/11/01 18:58:27;;;;;;;81.85;38.40;;;10.10;87.40;;;;;;5079120;28;20032;-77
2021/11/01 19:00:57;;;;;;;43.95;20.65;;;10.10;87.40;;;;;;5078691;28;20514;-76
2021/11/01 19:03:25;;;;;;;46.85;22.48;;;10.10;87.60;;;;;;5079207;28;20027;-77
2021/11/01 19:06:15;;;;;;;37.72;16.05;;;10.10;87.90;;;;;;5078625;28;20025;-76
2021/11/01 20:04:27;;;;;;;8.20;3.22;;;10.10;90.10;;;;;;5077226;28;20510;-77
2021/11/01 21:27:22;;;;;;;7.00;3.47;;;9.00;88.00;;;;;;5076920;28;20029;-76
2021/11/01 21:29:48;;;;;;;5.63;3.13;;;9.00;87.80;;;;;;5066201;28;20029;-76
2021/11/01 21:32:15;;;;;;;8.82;3.03;;;9.00;87.80;;;;;;5076855;28;20040;-76
2021/11/01 21:35:04;;;;;;;8.18;3.05;;;9.00;88.90;;;;;;5076668;28;20568;-76
2021/11/01 21:37:30;;;;;;;6.95;2.72;;;9.10;89.00;;;;;;5076920;28;20044;-76
2021/11/01 21:39:59;;;;;;;7.13;2.70;;;9.10;89.70;;;;;;5075988;28;20094;-74
2021/11/01 21:42:25;;;;;;;7.88;2.72;;;9.20;89.90;;;;;;5071115;28;20024;-74
2021/11/01 21:44:52;;;;;;;6.38;2.45;;;9.20;90.30;;;;;;5080162;28;20479;-74
2021/11/01 21:47:19;;;;;;;5.95;3.08;;;9.30;90.40;;;;;;5080527;28;20033;-73
2021/11/01 21:49:46;;;;;;;7.32;2.67;;;9.30;90.30;;;;;;5080124;28;20020;-73
2021/11/01 21:52:14;;;;;;;5.90;2.55;;;9.30;90.20;;;;;;5080452;28;20028;-73
2021/11/01 21:54:45;;;;;;;7.22;2.60;;;9.30;90.20;;;;;;5080106;28;20024;-73
2021/11/01 22:21:45;;;;;;;15.25;4.47;;;9.10;90.30;;;;;;5079742;28;20028;-75
2021/11/01 22:24:15;;;;;;;11.80;3.88;;;9.10;90.60;;;;;;5079725;28;20047;-75
2021/11/01 22:38:17;;;;;;;19.80;5.93;;;9.00;90.60;;;;;;5080150;28;20475;-76
2021/11/01 22:43:11;;;;;;;7.78;2.60;;;8.80;90.70;;;;;;5079600;28;20028;-75
2021/11/01 22:58:40;;;;;;;8.70;2.42;;;8.70;91.30;;;;;;5078877;28;20068;-74
2021/11/01 23:01:12;;;;;;;7.90;2.30;;;8.60;91.40;;;;;;5069889;28;20009;-74
2021/11/01 23:06:47;;;;;;;6.63;2.40;;;8.60;91.50;;;;;;5079187;28;20024;-75
2021/11/01 23:33:49;;;;;;;4.03;1.58;;;8.50;92.30;;;;;;5078843;28;20036;-74
2021/11/01 23:36:16;;;;;;;4.55;1.42;;;8.50;92.30;;;;;;5078469;28;20048;-75
2021/11/01 23:38:42;;;;;;;6.28;1.30;;;8.50;92.30;;;;;;5078157;28;20031;-74
2021/11/01 23:41:08;;;;;;;3.47;1.13;;;8.50;92.20;;;;;;5078681;28;20020;-75
2021/11/01 23:43:34;;;;;;;8.00;2.03;;;8.50;92.20;;;;;;5078401;28;20025;-74
2021/11/01 23:46:00;;;;;;;3.20;1.15;;;8.50;92.20;;;;;;5078588;28;20032;-75
2021/11/01 23:48:26;;;;;;;4.20;1.58;;;8.50;92.30;;;;;;5078349;28;20100;-74
2021/11/01 23:50:54;;;;;;;4.60;1.55;;;8.50;92.30;;;;;;5077232;28;20104;-74
2021/11/01 23:53:36;;;;;;;5.95;1.58;;;8.50;92.20;;;;;;5073189;28;20056;-75
2021/11/01 23:56:03;;;;;;;5.70;1.70;;;8.50;92.00;;;;;;5075436;28;20021;-75
2021/11/01 23:58:29;;;;;;;3.38;1.20;;;8.50;92.00;;;;;;5077993;28;20061;-74
